createdAt,value
2019-03-26T00:00:42.456Z,8.59
2019-03-26T00:06:04.617Z,8.54
2019-03-26T00:11:26.501Z,8.51
2019-03-26T00:16:48.856Z,8.43
2019-03-26T00:22:11.140Z,8.39
2019-03-26T00:27:33.143Z,8.41
2019-03-26T00:32:57.051Z,8.42
2019-03-26T00:38:19.162Z,8.48
2019-03-26T00:43:41.373Z,8.39
2019-03-26T00:49:03.719Z,8.16
2019-03-26T00:54:25.989Z,8.09
2019-03-26T00:59:48.489Z,8.07
2019-03-26T01:05:10.778Z,8.18
2019-03-26T01:10:33.024Z,8.05
2019-03-26T01:15:55.348Z,8.02
2019-03-26T01:21:17.366Z,7.93
2019-03-26T01:26:40.054Z,7.86
2019-03-26T01:32:02.186Z,7.87
2019-03-26T01:37:24.630Z,7.81
2019-03-26T01:42:48.066Z,7.81
2019-03-26T01:48:09.975Z,7.72
2019-03-26T01:53:32.349Z,7.72
2019-03-26T01:58:54.820Z,7.56
2019-03-26T02:04:17.632Z,7.54
2019-03-26T02:09:39.750Z,7.52
2019-03-26T02:15:02.408Z,7.48
2019-03-26T02:20:24.347Z,7.38
2019-03-26T02:25:46.442Z,7.19
2019-03-26T02:31:08.276Z,7.18
2019-03-26T02:36:30.221Z,7.18
2019-03-26T02:41:52.627Z,7.15
2019-03-26T02:47:14.769Z,7.07
2019-03-26T02:52:36.982Z,7.06
2019-03-26T02:57:58.999Z,7.10
2019-03-26T03:03:29.645Z,7.11
2019-03-26T03:08:51.705Z,7.12
2019-03-26T03:14:14.008Z,7.07
2019-03-26T03:19:35.824Z,7.08
2019-03-26T03:24:58.497Z,7.12
2019-03-26T03:30:20.809Z,7.07
2019-03-26T03:35:51.880Z,6.98
2019-03-26T03:41:07.710Z,7.01
2019-03-26T03:46:30.385Z,7.18
2019-03-26T03:51:53.689Z,7.27
2019-03-26T03:57:17.325Z,7.29
2019-03-26T04:02:39.369Z,7.25
2019-03-26T04:08:01.551Z,7.17
2019-03-26T04:13:23.800Z,7.12
2019-03-26T04:18:45.975Z,7.09
2019-03-26T04:24:07.897Z,7.24
2019-03-26T04:29:30.389Z,7.57
2019-03-26T04:34:52.583Z,7.93
2019-03-26T04:40:14.897Z,7.99
2019-03-26T04:45:37.365Z,8.03
2019-03-26T04:50:59.064Z,8.05
2019-03-26T04:56:22.647Z,8.33
2019-03-26T05:01:45.081Z,8.76
2019-03-26T05:07:06.968Z,8.86
2019-03-26T05:12:29.511Z,9.09
2019-03-26T05:17:51.781Z,9.24
2019-03-26T05:23:14.649Z,9.46
2019-03-26T05:28:36.858Z,9.61
2019-03-26T05:33:58.875Z,9.56
2019-03-26T05:39:23.195Z,9.48
2019-03-26T05:44:45.166Z,9.66
2019-03-26T05:50:09.352Z,9.70
2019-03-26T05:55:31.909Z,9.82
2019-03-26T06:00:54.114Z,9.92
2019-03-26T06:06:15.948Z,10.21
2019-03-26T06:11:38.132Z,10.56
2019-03-26T06:17:00.226Z,10.71
2019-03-26T06:22:22.368Z,10.70
2019-03-26T06:27:44.285Z,10.96
2019-03-26T06:33:06.254Z,11.17
2019-03-26T06:38:27.954Z,11.26
2019-03-26T06:43:49.762Z,11.40
2019-03-26T06:49:11.752Z,11.34
2019-03-26T06:54:34.012Z,11.31
2019-03-26T06:59:56.921Z,11.45
2019-03-26T07:05:18.982Z,11.66
2019-03-26T07:10:41.010Z,12.24
2019-03-26T07:16:03.355Z,12.73
2019-03-26T07:21:25.345Z,13.11
2019-03-26T07:26:47.855Z,13.76
2019-03-26T07:32:09.853Z,14.02
2019-03-26T07:37:44.197Z,14.40
2019-03-26T07:42:55.887Z,14.70
2019-03-26T07:48:17.851Z,14.58
2019-03-26T07:53:39.993Z,14.36
2019-03-26T07:59:02.432Z,14.51
2019-03-26T08:04:24.534Z,14.73
2019-03-26T08:09:46.893Z,15.18
2019-03-26T08:15:09.209Z,15.14
2019-03-26T08:20:32.581Z,15.74
2019-03-26T08:25:55.025Z,16.04
2019-03-26T08:31:17.412Z,16.32
2019-03-26T08:36:39.524Z,16.37
2019-03-26T08:42:01.249Z,16.31
2019-03-26T08:47:23.939Z,16.27
2019-03-26T08:52:46.045Z,16.27
2019-03-26T08:58:08.329Z,16.19
2019-03-26T09:03:30.605Z,16.16
2019-03-26T09:08:53.272Z,15.99
2019-03-26T09:14:15.343Z,15.92
2019-03-26T09:19:37.716Z,15.92
2019-03-26T09:24:59.822Z,16.14
2019-03-26T09:30:22.315Z,16.19
2019-03-26T09:35:44.565Z,16.02
2019-03-26T09:41:06.875Z,15.98
2019-03-26T09:46:29.497Z,16.26
2019-03-26T09:51:51.744Z,16.08
2019-03-26T09:57:13.864Z,16.20
2019-03-26T10:02:36.320Z,16.08
2019-03-26T10:07:59.110Z,15.96
2019-03-26T10:13:21.452Z,15.97
2019-03-26T10:18:43.485Z,16.02
2019-03-26T10:24:05.494Z,15.98
2019-03-26T10:29:30.501Z,16.09
2019-03-26T10:34:52.043Z,16.25
2019-03-26T10:40:22.832Z,16.26
2019-03-26T10:45:45.294Z,16.30
2019-03-26T10:51:07.305Z,16.13
2019-03-26T10:56:32.510Z,16.25
2019-03-26T11:01:53.854Z,16.14
2019-03-26T11:07:15.584Z,16.14
2019-03-26T11:12:37.642Z,16.09
2019-03-26T11:17:59.744Z,16.10
2019-03-26T11:23:21.947Z,16.16
2019-03-26T11:28:44.874Z,15.91
2019-03-26T11:34:07.177Z,16.27
2019-03-26T11:39:34.719Z,16.10
2019-03-26T11:44:59.391Z,16.02
2019-03-26T11:50:21.866Z,15.84
2019-03-26T11:55:43.893Z,15.92
2019-03-26T12:01:05.928Z,15.84
2019-03-26T12:06:28.016Z,15.51
2019-03-26T12:11:50.014Z,15.48
2019-03-26T12:17:14.787Z,15.50
2019-03-26T12:22:36.399Z,15.57
2019-03-26T12:27:58.430Z,15.46
2019-03-26T12:33:20.822Z,15.42
2019-03-26T12:38:44.186Z,15.45
2019-03-26T12:44:06.706Z,15.35
2019-03-26T12:49:28.892Z,15.29
2019-03-26T12:54:51.330Z,15.08
2019-03-26T13:00:13.882Z,15.14
2019-03-26T13:05:36.927Z,15.16
2019-03-26T13:11:00.899Z,14.90
2019-03-26T13:16:23.487Z,14.90
2019-03-26T13:21:47.838Z,14.53
2019-03-26T13:27:10.304Z,14.69
2019-03-26T13:32:33.151Z,14.71
2019-03-26T13:37:55.526Z,14.54
2019-03-26T13:43:17.751Z,14.29
2019-03-26T13:48:39.975Z,14.08
2019-03-26T13:54:02.141Z,13.86
2019-03-26T13:59:24.320Z,13.85
2019-03-26T14:04:46.599Z,13.73
2019-03-26T14:10:11.891Z,13.46
2019-03-26T14:15:34.210Z,13.34
2019-03-26T14:20:56.111Z,13.21
2019-03-26T14:26:18.664Z,13.05
2019-03-26T14:31:40.795Z,13.00
2019-03-26T14:37:03.203Z,12.85
2019-03-26T14:42:25.302Z,12.72
2019-03-26T14:47:47.778Z,12.64
2019-03-26T14:53:10.058Z,12.39
2019-03-26T14:58:31.866Z,12.37
2019-03-26T15:03:54.549Z,12.33
2019-03-26T15:09:17.055Z,12.22
2019-03-26T15:14:39.497Z,12.14
2019-03-26T15:20:02.058Z,12.11
2019-03-26T15:25:26.936Z,12.03
2019-03-26T15:30:49.506Z,12.03
2019-03-26T15:36:11.596Z,11.94
2019-03-26T15:41:33.842Z,11.83
2019-03-26T15:46:55.913Z,11.74
2019-03-26T15:52:17.879Z,11.67
2019-03-26T15:57:40.459Z,11.66
2019-03-26T16:03:03.156Z,11.57
2019-03-26T16:08:25.288Z,11.49
2019-03-26T16:13:47.692Z,11.46
2019-03-26T16:19:10.080Z,11.45
2019-03-26T16:24:32.932Z,11.38
2019-03-26T16:29:54.817Z,11.35
2019-03-26T16:35:17.263Z,11.29
2019-03-26T16:40:42.552Z,11.24
2019-03-26T16:46:04.945Z,11.18
2019-03-26T16:51:35.168Z,11.11
2019-03-26T16:56:58.176Z,11.05
2019-03-26T17:02:20.779Z,11.04
2019-03-26T17:07:44.881Z,10.98
2019-03-26T17:13:07.247Z,10.91
2019-03-26T17:18:29.819Z,10.91
2019-03-26T17:23:52.547Z,10.86
2019-03-26T17:29:15.178Z,10.93
2019-03-26T17:34:37.025Z,10.89
2019-03-26T17:39:58.955Z,10.84
2019-03-26T17:45:21.965Z,10.78
2019-03-26T17:50:48.840Z,10.74
2019-03-26T17:56:12.467Z,10.62
2019-03-26T18:01:39.836Z,10.56
2019-03-26T18:07:05.224Z,10.58
2019-03-26T18:12:31.195Z,10.56
2019-03-26T18:17:50.711Z,10.51
2019-03-26T18:23:13.596Z,10.47
2019-03-26T18:28:35.912Z,10.41
2019-03-26T18:33:59.981Z,10.40
2019-03-26T18:39:23.187Z,10.39
2019-03-26T18:44:46.312Z,10.31
2019-03-26T18:50:08.699Z,10.31
2019-03-26T18:55:33.934Z,10.21
2019-03-26T19:00:57.164Z,10.13
2019-03-26T19:06:21.436Z,10.04
2019-03-26T19:11:49.924Z,9.98
2019-03-26T19:17:22.286Z,9.86
2019-03-26T19:22:48.436Z,9.87
2019-03-26T19:28:16.406Z,9.84
2019-03-26T19:33:47.019Z,9.83
2019-03-26T19:39:09.209Z,9.90
2019-03-26T19:44:37.104Z,9.88
2019-03-26T19:50:02.943Z,9.87
2019-03-26T19:55:28.441Z,9.78
2019-03-26T20:00:50.921Z,9.79
2019-03-26T20:06:16.969Z,9.74
2019-03-26T20:11:44.608Z,9.70
2019-03-26T20:17:11.742Z,9.72
2019-03-26T20:22:34.672Z,9.80
2019-03-26T20:28:01.088Z,9.78
2019-03-26T20:33:34.589Z,9.75
2019-03-26T20:39:02.676Z,9.76
2019-03-26T20:44:27.491Z,9.83
2019-03-26T20:49:50.858Z,9.83
2019-03-26T20:55:18.943Z,9.79
2019-03-26T21:00:46.886Z,9.77
2019-03-26T21:06:09.762Z,9.73
2019-03-26T21:11:31.839Z,9.83
2019-03-26T21:16:56.091Z,9.85
2019-03-26T21:22:19.951Z,9.91
2019-03-26T21:27:44.031Z,10.05
2019-03-26T21:33:09.814Z,9.89
2019-03-26T21:38:32.545Z,9.95
2019-03-26T21:44:04.593Z,9.83
2019-03-26T21:49:25.371Z,9.79
2019-03-26T21:54:49.378Z,9.87
2019-03-26T22:00:12.915Z,9.83
2019-03-26T22:05:36.407Z,9.95
2019-03-26T22:10:59.242Z,9.94
2019-03-26T22:16:22.924Z,10.09
2019-03-26T22:21:47.040Z,10.03
2019-03-26T22:27:10.871Z,9.96
2019-03-26T22:32:33.853Z,9.92
2019-03-26T22:37:59.793Z,9.88
2019-03-26T22:43:22.991Z,9.85
2019-03-26T22:48:45.862Z,9.82
2019-03-26T22:54:09.649Z,9.98
2019-03-26T22:59:34.120Z,9.88
2019-03-26T23:04:56.322Z,9.94
2019-03-26T23:10:21.083Z,9.87
2019-03-26T23:15:44.835Z,10.01
2019-03-26T23:21:08.219Z,10.07
2019-03-26T23:26:31.234Z,9.96
2019-03-26T23:31:53.899Z,10.08
2019-03-26T23:37:16.930Z,10.09
2019-03-26T23:42:38.761Z,10.02
2019-03-26T23:48:02.532Z,10.06
2019-03-26T23:53:26.354Z,10.06
2019-03-26T23:58:49.501Z,10.06
